Contact Us:
Email: info@sawbill.com
Phone: (218)663-7150
Fax: (218)663-7980
Mail: 4620 Sawbill Trail
Box 2129
Tofte, MN 55615


Powered by
Movable Type 3.15
 
Sawbill Weather History Archives: December 2006
Current Sawbill Weather History | « November 2006 | January 2007 »


Date

High
Temperature

Low
Temperature

Barometric
Pressure

Relative
Humidity 7AM

9 AM
Temperature

Moisture

Snow

12/31/06 36 20 29.89 74% 20 .17" 3"
12/30/06 34 30 29.89 83% 33 0
12/29/06 33 28 30.42 78% 30 Trace Trace
12/28/06 28 21 30.47 78% 28 0
12/27/06 31 11 30.19 73% 21 0
12/26/06 25 12 29.75 75% 19 0
12/25/06 26 4 29.84 66% 12 0
12/24/06 38 21 29.97 71% 21 0
12/23/06 35 19 29.90 71% 21 Trace Trace
12/22/06 35 25 29.76 75% 25 0
12/21/06 33 11 29.88 79% 32 0
12/20/06 38 12 30.204 64% 12 0
12/19/06 37 23 29.94 68% 27 0
12/18/06 25 10 30.08 63% 23 0
12/17/06 32 11 30.20 66% 11 0
12/16/06 34 22 29.83 72% 22 0
12/15/06 29 25 29.61 80% 29 .05" 1"
12/14/06 35 27 29.69 79% 27 .2" 2"
12/13/06 34 30 29.43 78% 30 0
12/12/06 37 33 29.62 82% 33 Trace Trace
12/11/06 35 31 29.87 85% 35 Trace
12/10/06 45 24 30.17 82% 31 0
12/9/06 48 16 29.88 71% 24 0
12/8/06 32 15 29.68 65% 16 0
12/7/06 15 -2 30.00 65% 15 0
12/6/06 13 -2 30.40 59% -1 0
12/5/06 18 2 29.78 65% 8 .11" 1.5"
12/4/06 18 1 29.94 57% 2 0
12/3/06 20 5 29.93 65% 10 .1" 1"
12/2/06 25 5 30.32 64% 5 .54" 4"
12/1/06 27 16 29.94 73% 22 0
 


Home I Trip Planning I Rentals and Outfitting I Reservations I Campgrounds I Sawbill Store I Sawbill News I Contact

© 1997 - 2017, Sawbill Canoe Outfitters, Inc. I Privacy Policy